Time;durP1;ratioP1;P1;durP2;ratioP2;P2;SDS_P1;SDS_P2;PMS_P1;PMS_P2;Temp;Humidity;BMP_temperature;BMP_pressure;BME280_temperature;BME280_humidity;BME280_pressure;Samples;Min_cycle;Max_cycle;Signal;HPM_P1;HPM_P2
2024/01/20 00:01:32;;;;;;;12.75;6.25;;;;;;;;;;5886537;28;20103;-79
2024/01/20 00:04:23;;;;;;;15.45;5.10;;;;;;;;;;5884993;28;20041;-79
2024/01/20 00:07:14;;;;;;;14.70;5.85;;;;;;;;;;5885075;28;20076;-79
2024/01/20 00:10:10;;;;;;;5.93;4.50;;;;;;;;;;5884818;28;20051;-79
2024/01/20 00:13:01;;;;;;;7.72;4.85;;;;;;;;;;5885059;28;20049;-79
2024/01/20 00:15:52;;;;;;;10.82;5.10;;;;;;;;;;5901967;28;20071;-79
2024/01/20 00:18:43;;;;;;;7.97;6.38;;;;;;;;;;5885013;28;20048;-79
2024/01/20 00:21:34;;;;;;;7.53;4.40;;;;;;;;;;5884660;28;20131;-79
2024/01/20 00:24:25;;;;;;;13.38;6.07;;;;;;;;;;5885249;28;20049;-79
2024/01/20 00:27:16;;;;;;;15.00;5.80;;;;;;;;;;5884531;28;20132;-79
2024/01/20 00:30:08;;;;;;;9.82;5.30;;;;;;;;;;5884395;28;20041;-79
2024/01/20 00:32:59;;;;;;;6.03;4.38;;;;;;;;;;5886324;28;20049;-79
2024/01/20 00:35:50;;;;;;;15.32;5.70;;;;;;;;;;5884606;28;20037;-79
2024/01/20 00:38:42;;;;;;;10.50;6.82;;;;;;;;;;5884531;28;20044;-79
2024/01/20 00:41:33;;;;;;;17.30;5.60;;;;;;;;;;5884314;28;20422;-79
2024/01/20 00:44:24;;;;;;;19.10;7.03;;;;;;;;;;5885862;28;20044;-79
2024/01/20 00:47:14;;;;;;;13.60;6.25;;;;;;;;;;5884511;28;20049;-79
2024/01/20 00:50:06;;;;;;;13.10;4.93;;;;;;;;;;5883899;28;20066;-79
2024/01/20 00:52:57;;;;;;;19.02;6.50;;;;;;;;;;5886238;28;20060;-79
2024/01/20 00:55:48;;;;;;;7.90;4.88;;;;;;;;;;5884239;28;20499;-79
2024/01/20 00:58:39;;;;;;;12.75;5.70;;;;;;;;;;5884051;28;20049;-79
2024/01/20 01:01:30;;;;;;;6.07;3.72;;;;;;;;;;5879054;28;20769;-79
2024/01/20 01:04:21;;;;;;;16.42;4.55;;;;;;;;;;5853192;28;20057;-79
2024/01/20 01:07:12;;;;;;;20.92;5.45;;;;;;;;;;5860843;28;20526;-79
2024/01/20 01:10:04;;;;;;;14.75;5.32;;;;;;;;;;5862117;28;20045;-79
2024/01/20 01:12:55;;;;;;;15.27;5.80;;;;;;;;;;5861458;28;20041;-79
2024/01/20 01:15:45;;;;;;;3.97;2.90;;;;;;;;;;5860722;28;20503;-79
2024/01/20 01:18:36;;;;;;;10.48;4.78;;;;;;;;;;5877761;28;20559;-79
2024/01/20 01:21:27;;;;;;;9.48;5.18;;;;;;;;;;5862603;28;20055;-79
2024/01/20 01:24:18;;;;;;;11.18;4.75;;;;;;;;;;5860892;28;20061;-79
2024/01/20 01:27:09;;;;;;;17.70;5.07;;;;;;;;;;5861912;28;20053;-79
2024/01/20 01:30:00;;;;;;;12.68;4.75;;;;;;;;;;5861147;28;20053;-79
2024/01/20 01:32:51;;;;;;;12.20;5.32;;;;;;;;;;5877456;28;20057;-80
2024/01/20 01:35:42;;;;;;;13.68;5.10;;;;;;;;;;5864918;28;20576;-80
2024/01/20 01:38:33;;;;;;;4.55;3.30;;;;;;;;;;5864974;28;20116;-79
2024/01/20 01:41:24;;;;;;;13.15;4.53;;;;;;;;;;5864629;28;20060;-79
2024/01/20 01:44:15;;;;;;;15.30;5.22;;;;;;;;;;5864896;28;20054;-79
2024/01/20 01:47:06;;;;;;;13.05;3.92;;;;;;;;;;5864629;28;20052;-79
2024/01/20 01:49:57;;;;;;;5.40;3.58;;;;;;;;;;5865061;28;20049;-79
2024/01/20 01:52:54;;;;;;;25.75;4.20;;;;;;;;;;5864752;28;20203;-79
2024/01/20 01:55:47;;;;;;;5.72;4.15;;;;;;;;;;5880024;28;20495;-79
2024/01/20 01:58:38;;;;;;;7.38;4.53;;;;;;;;;;5881033;28;20045;-79
2024/01/20 02:01:28;;;;;;;9.55;3.20;;;;;;;;;;5864480;28;20046;-79
2024/01/20 02:04:19;;;;;;;8.55;4.38;;;;;;;;;;5864548;28;20499;-79
2024/01/20 02:07:12;;;;;;;14.80;5.10;;;;;;;;;;5864519;28;20053;-79
2024/01/20 02:10:06;;;;;;;5.40;3.08;;;;;;;;;;5864472;28;20052;-79
2024/01/20 02:12:58;;;;;;;19.88;4.30;;;;;;;;;;5864977;28;20048;-80
2024/01/20 02:15:49;;;;;;;5.50;2.85;;;;;;;;;;5864330;28;20510;-79
2024/01/20 02:18:40;;;;;;;7.00;3.50;;;;;;;;;;5864010;28;20041;-79
2024/01/20 02:21:32;;;;;;;12.77;2.75;;;;;;;;;;5864152;28;20060;-79
2024/01/20 02:24:23;;;;;;;10.65;4.32;;;;;;;;;;5880021;28;20046;-79
2024/01/20 02:27:16;;;;;;;9.63;4.32;;;;;;;;;;5880174;28;20136;-79
2024/01/20 02:30:08;;;;;;;12.32;3.83;;;;;;;;;;5880147;28;20049;-79
2024/01/20 02:32:59;;;;;;;5.45;3.20;;;;;;;;;;5864353;28;20069;-79
2024/01/20 02:35:50;;;;;;;8.18;3.03;;;;;;;;;;5863702;28;20045;-79
2024/01/20 02:38:41;;;;;;;12.35;4.18;;;;;;;;;;5864135;28;20454;-79
2024/01/20 02:41:32;;;;;;;10.45;5.35;;;;;;;;;;5863516;28;20052;-79
2024/01/20 02:44:22;;;;;;;10.75;3.50;;;;;;;;;;5863382;28;20048;-79
2024/01/20 02:47:13;;;;;;;9.77;5.13;;;;;;;;;;5862227;28;20060;-79
2024/01/20 02:50:05;;;;;;;10.32;4.47;;;;;;;;;;5863109;28;20042;-79
2024/01/20 02:52:56;;;;;;;11.70;5.75;;;;;;;;;;5864947;28;20046;-79
2024/01/20 02:55:47;;;;;;;10.18;5.63;;;;;;;;;;5864203;28;20525;-79
2024/01/20 02:58:37;;;;;;;19.77;6.25;;;;;;;;;;5863103;28;20041;-79
2024/01/20 03:01:28;;;;;;;7.80;5.15;;;;;;;;;;5863152;28;20045;-79
2024/01/20 03:04:19;;;;;;;17.23;6.00;;;;;;;;;;5864360;28;20050;-79
2024/01/20 03:07:10;;;;;;;24.60;7.68;;;;;;;;;;5864343;28;20062;-79
2024/01/20 03:10:01;;;;;;;17.25;4.95;;;;;;;;;;5862687;28;20064;-79
2024/01/20 03:12:52;;;;;;;13.75;5.85;;;;;;;;;;5863176;28;20053;-79
2024/01/20 03:15:43;;;;;;;13.13;4.90;;;;;;;;;;5864096;28;20411;-79
2024/01/20 03:18:34;;;;;;;7.72;4.18;;;;;;;;;;5862663;28;20037;-79
2024/01/20 03:21:25;;;;;;;16.83;6.10;;;;;;;;;;5879032;28;20045;-79
2024/01/20 03:24:19;;;;;;;9.27;4.07;;;;;;;;;;5862435;28;20053;-79
2024/01/20 03:27:10;;;;;;;14.05;5.03;;;;;;;;;;5862454;28;20053;-79
2024/01/20 03:30:01;;;;;;;7.15;4.35;;;;;;;;;;5862426;28;20143;-79
2024/01/20 03:32:52;;;;;;;11.15;4.55;;;;;;;;;;5862844;28;20509;-79
2024/01/20 03:35:43;;;;;;;7.05;4.07;;;;;;;;;;5863508;28;20411;-79
2024/01/20 03:38:33;;;;;;;7.95;3.90;;;;;;;;;;5863817;28;20483;-79
2024/01/20 03:41:24;;;;;;;5.78;3.13;;;;;;;;;;5862559;28;20415;-79
2024/01/20 03:44:15;;;;;;;5.53;3.17;;;;;;;;;;5861808;28;20049;-79
2024/01/20 03:47:06;;;;;;;6.63;4.93;;;;;;;;;;5863575;28;20136;-79
2024/01/20 03:49:56;;;;;;;7.80;4.78;;;;;;;;;;5862440;28;20049;-79
2024/01/20 03:52:47;;;;;;;9.43;4.53;;;;;;;;;;5861833;28;20041;-79
2024/01/20 03:55:38;;;;;;;11.90;5.00;;;;;;;;;;5878498;28;20037;-79
2024/01/20 03:58:29;;;;;;;20.25;5.50;;;;;;;;;;5861797;28;20048;-79
2024/01/20 04:01:20;;;;;;;6.57;3.67;;;;;;;;;;5862024;28;20053;-79
2024/01/20 04:04:10;;;;;;;8.00;4.75;;;;;;;;;;5861666;28;20092;-79
2024/01/20 04:07:01;;;;;;;9.57;4.90;;;;;;;;;;5862004;28;20495;-79
2024/01/20 04:09:52;;;;;;;9.40;4.90;;;;;;;;;;5861957;28;20068;-79
2024/01/20 04:12:43;;;;;;;17.63;5.20;;;;;;;;;;5861613;28;20491;-79
2024/01/20 04:15:34;;;;;;;13.23;4.93;;;;;;;;;;5845288;28;20048;-79
2024/01/20 04:18:25;;;;;;;14.70;3.38;;;;;;;;;;5861758;28;20092;-79
2024/01/20 04:21:16;;;;;;;11.52;4.00;;;;;;;;;;5861290;28;20056;-79
2024/01/20 04:24:06;;;;;;;28.33;5.80;;;;;;;;;;5861402;28;20073;-79
2024/01/20 04:26:57;;;;;;;10.52;4.18;;;;;;;;;;5862002;28;20045;-79
2024/01/20 04:29:48;;;;;;;11.02;4.38;;;;;;;;;;5861263;28;20120;-79
2024/01/20 04:32:39;;;;;;;9.93;4.13;;;;;;;;;;5861564;28;20068;-79
2024/01/20 04:35:30;;;;;;;11.00;5.32;;;;;;;;;;5861368;28;20055;-79
2024/01/20 04:38:20;;;;;;;9.77;5.03;;;;;;;;;;5861198;28;20053;-78
2024/01/20 04:41:11;;;;;;;11.77;5.55;;;;;;;;;;5861305;28;20060;-79
2024/01/20 04:44:02;;;;;;;9.10;4.70;;;;;;;;;;5861271;28;20428;-79
2024/01/20 04:46:53;;;;;;;8.95;4.55;;;;;;;;;;5845579;28;20415;-79
2024/01/20 04:49:43;;;;;;;8.45;4.78;;;;;;;;;;5860976;28;20043;-79
2024/01/20 04:52:35;;;;;;;6.60;3.53;;;;;;;;;;5861272;28;20128;-79
2024/01/20 04:55:25;;;;;;;8.32;3.97;;;;;;;;;;5860974;28;20045;-79
2024/01/20 04:58:16;;;;;;;8.90;4.32;;;;;;;;;;5861121;28;20549;-79
2024/01/20 05:01:07;;;;;;;5.90;3.17;;;;;;;;;;5860928;28;20044;-79
2024/01/20 05:03:58;;;;;;;9.55;5.30;;;;;;;;;;5861429;28;20607;-78
2024/01/20 05:06:49;;;;;;;7.88;4.22;;;;;;;;;;5877358;28;20041;-79
2024/01/20 05:09:40;;;;;;;7.28;4.13;;;;;;;;;;5862147;28;20042;-78
2024/01/20 05:12:31;;;;;;;8.57;4.88;;;;;;;;;;5865496;28;20136;-79
2024/01/20 05:15:22;;;;;;;9.70;5.47;;;;;;;;;;5866535;28;20053;-78
2024/01/20 05:18:12;;;;;;;9.40;3.65;;;;;;;;;;5865121;28;20072;-78
2024/01/20 05:21:04;;;;;;;8.65;4.35;;;;;;;;;;5881786;28;20045;-78
2024/01/20 05:23:56;;;;;;;13.45;4.78;;;;;;;;;;5865568;28;20475;-79
2024/01/20 05:26:47;;;;;;;14.00;4.00;;;;;;;;;;5864932;28;20099;-79
2024/01/20 05:29:38;;;;;;;10.18;5.15;;;;;;;;;;5864861;28;20046;-79
2024/01/20 05:32:29;;;;;;;15.60;5.78;;;;;;;;;;5864946;28;20049;-79
2024/01/20 05:35:20;;;;;;;10.98;5.03;;;;;;;;;;5866290;28;20053;-79
2024/01/20 05:38:10;;;;;;;11.05;4.60;;;;;;;;;;5866394;28;20049;-79
2024/01/20 05:41:01;;;;;;;5.65;4.10;;;;;;;;;;5866015;28;20053;-79
2024/01/20 05:43:52;;;;;;;8.35;2.42;;;;;;;;;;5864753;28;20435;-79
2024/01/20 05:46:43;;;;;;;11.18;4.88;;;;;;;;;;5865769;28;20049;-79
2024/01/20 05:49:33;;;;;;;5.90;3.80;;;;;;;;;;5880941;28;20084;-79
2024/01/20 05:52:24;;;;;;;19.52;3.33;;;;;;;;;;5864588;28;20045;-79
2024/01/20 05:55:15;;;;;;;5.30;3.88;;;;;;;;;;5880583;28;20050;-79
2024/01/20 05:58:06;;;;;;;6.78;3.28;;;;;;;;;;5864204;28;20049;-79
2024/01/20 06:00:56;;;;;;;9.52;4.25;;;;;;;;;;5864594;28;20052;-79
2024/01/20 06:03:47;;;;;;;6.63;4.03;;;;;;;;;;5864215;28;20042;-79
2024/01/20 06:06:38;;;;;;;5.32;3.40;;;;;;;;;;5880510;28;20038;-80
2024/01/20 06:09:29;;;;;;;7.60;3.70;;;;;;;;;;5864270;28;20038;-79
2024/01/20 06:12:20;;;;;;;15.07;3.78;;;;;;;;;;5863897;28;20059;-79
2024/01/20 06:15:11;;;;;;;9.20;3.70;;;;;;;;;;5863953;28;20049;-79
2024/01/20 06:18:03;;;;;;;11.65;4.55;;;;;;;;;;5864934;28;20136;-79
2024/01/20 06:20:54;;;;;;;8.50;4.07;;;;;;;;;;5864132;28;20060;-80
2024/01/20 06:23:45;;;;;;;6.35;2.88;;;;;;;;;;5864952;28;20091;-80
2024/01/20 06:26:36;;;;;;;4.97;2.90;;;;;;;;;;5863640;28;20060;-79
2024/01/20 06:29:26;;;;;;;5.40;3.05;;;;;;;;;;5847269;28;20049;-80
2024/01/20 06:32:18;;;;;;;11.25;3.63;;;;;;;;;;5863646;28;20411;-79
2024/01/20 06:35:09;;;;;;;6.28;3.97;;;;;;;;;;5863379;28;20064;-79
2024/01/20 06:37:59;;;;;;;8.57;3.15;;;;;;;;;;5864005;28;20492;-79
2024/01/20 06:40:50;;;;;;;6.03;2.72;;;;;;;;;;5863646;28;20048;-80
2024/01/20 06:43:41;;;;;;;4.97;2.95;;;;;;;;;;5863274;28;20041;-79
2024/01/20 06:46:32;;;;;;;2.55;2.28;;;;;;;;;;5863299;28;20046;-80
2024/01/20 06:49:23;;;;;;;6.55;2.63;;;;;;;;;;5863498;28;20385;-80
2024/01/20 06:52:14;;;;;;;5.82;3.42;;;;;;;;;;5862963;28;20126;-80
2024/01/20 06:55:05;;;;;;;8.43;2.45;;;;;;;;;;5864370;28;20049;-80
2024/01/20 06:57:56;;;;;;;6.32;3.08;;;;;;;;;;5863799;28;20056;-79
2024/01/20 07:00:47;;;;;;;5.68;3.00;;;;;;;;;;5862879;28;20411;-80
2024/01/20 07:03:37;;;;;;;3.85;2.03;;;;;;;;;;5863730;28;20048;-80
2024/01/20 07:06:28;;;;;;;4.60;2.70;;;;;;;;;;5862749;28;20049;-79
2024/01/20 07:09:19;;;;;;;2.88;2.58;;;;;;;;;;5862827;28;20507;-79
2024/01/20 07:12:10;;;;;;;4.57;3.22;;;;;;;;;;5862929;28;20495;-81
2024/01/20 07:15:02;;;;;;;7.63;3.47;;;;;;;;;;5862729;28;20128;-79
2024/01/20 07:17:57;;;;;;;5.93;3.05;;;;;;;;;;5862947;28;20049;-79
2024/01/20 07:20:48;;;;;;;8.88;4.75;;;;;;;;;;5862456;28;20049;-80
2024/01/20 07:23:39;;;;;;;6.70;3.65;;;;;;;;;;5862726;28;20041;-79
2024/01/20 07:26:30;;;;;;;7.85;3.35;;;;;;;;;;5862362;28;20041;-79
2024/01/20 07:29:21;;;;;;;10.15;2.88;;;;;;;;;;5862354;28;20053;-80
2024/01/20 07:32:11;;;;;;;6.68;4.13;;;;;;;;;;5862114;28;20050;-80
2024/01/20 07:35:03;;;;;;;9.00;2.90;;;;;;;;;;5879034;28;20049;-79
2024/01/20 07:37:54;;;;;;;8.50;5.13;;;;;;;;;;5863178;28;20049;-80
2024/01/20 07:40:45;;;;;;;8.35;5.25;;;;;;;;;;5862343;28;20045;-80
2024/01/20 07:43:37;;;;;;;10.43;5.55;;;;;;;;;;5862194;28;20048;-79
2024/01/20 07:46:28;;;;;;;8.07;3.97;;;;;;;;;;5861940;28;20495;-80
2024/01/20 07:49:19;;;;;;;8.88;3.75;;;;;;;;;;5863085;28;20499;-79
2024/01/20 07:52:10;;;;;;;7.43;3.42;;;;;;;;;;5878446;28;20103;-79
2024/01/20 07:55:00;;;;;;;4.18;2.92;;;;;;;;;;5862452;28;20049;-81
2024/01/20 07:57:51;;;;;;;7.63;4.40;;;;;;;;;;5846048;28;20440;-80
2024/01/20 08:00:42;;;;;;;6.63;2.83;;;;;;;;;;5878445;28;20056;-80
2024/01/20 08:03:33;;;;;;;10.55;3.53;;;;;;;;;;5862225;28;20462;-81
2024/01/20 08:06:24;;;;;;;5.40;3.13;;;;;;;;;;5861872;28;20076;-81
2024/01/20 08:09:15;;;;;;;6.25;4.05;;;;;;;;;;5861735;28;20072;-80
2024/01/20 08:12:06;;;;;;;4.28;2.75;;;;;;;;;;5863438;28;20128;-80
2024/01/20 08:14:57;;;;;;;5.20;2.30;;;;;;;;;;5863671;28;20454;-80
2024/01/20 08:17:48;;;;;;;19.15;7.43;;;;;;;;;;5861836;28;20108;-81
2024/01/20 08:20:39;;;;;;;20.85;7.82;;;;;;;;;;5861718;28;20120;-79
2024/01/20 08:23:30;;;;;;;17.33;8.52;;;;;;;;;;5861585;28;20411;-80
2024/01/20 08:26:21;;;;;;;10.75;6.75;;;;;;;;;;5861472;28;20511;-81
2024/01/20 08:29:12;;;;;;;9.23;6.32;;;;;;;;;;5862655;28;20052;-80
2024/01/20 08:32:03;;;;;;;10.57;5.72;;;;;;;;;;5878128;28;20049;-80
2024/01/20 08:34:54;;;;;;;6.93;4.47;;;;;;;;;;5861847;28;20060;-80
2024/01/20 08:37:45;;;;;;;6.15;3.50;;;;;;;;;;5861328;28;20052;-81
2024/01/20 08:40:36;;;;;;;13.77;4.65;;;;;;;;;;5861355;28;20046;-80
2024/01/20 08:43:27;;;;;;;6.88;3.42;;;;;;;;;;5861207;28;20411;-79
2024/01/20 08:46:17;;;;;;;8.07;3.70;;;;;;;;;;5866947;28;20053;-79
2024/01/20 08:49:08;;;;;;;5.78;3.63;;;;;;;;;;5865630;28;20116;-79
2024/01/20 08:51:59;;;;;;;7.55;4.75;;;;;;;;;;5867829;28;20203;-79
2024/01/20 08:54:50;;;;;;;8.15;3.22;;;;;;;;;;5866032;28;20041;-79
2024/01/20 08:57:41;;;;;;;18.80;3.80;;;;;;;;;;5865785;28;20037;-80
2024/01/20 09:00:31;;;;;;;9.18;3.38;;;;;;;;;;5865860;28;20041;-78
2024/01/20 09:03:22;;;;;;;7.18;2.78;;;;;;;;;;5865810;28;20103;-79
2024/01/20 09:06:15;;;;;;;5.32;2.55;;;;;;;;;;5865357;28;20057;-80
2024/01/20 09:09:06;;;;;;;3.72;2.88;;;;;;;;;;5865314;28;20045;-80
2024/01/20 09:11:57;;;;;;;4.20;2.83;;;;;;;;;;5867155;28;20140;-80
2024/01/20 09:14:48;;;;;;;6.85;4.60;;;;;;;;;;5866791;28;20813;-80
2024/01/20 09:17:39;;;;;;;10.05;5.57;;;;;;;;;;5881803;28;20045;-80
2024/01/20 09:20:29;;;;;;;13.52;3.60;;;;;;;;;;5848883;28;20128;-79
2024/01/20 09:23:20;;;;;;;10.20;4.60;;;;;;;;;;5866507;28;20051;-80
2024/01/20 09:26:11;;;;;;;8.65;3.30;;;;;;;;;;5865120;28;20063;-81
2024/01/20 09:29:02;;;;;;;6.57;2.45;;;;;;;;;;5866739;28;20709;-80
2024/01/20 09:31:52;;;;;;;5.82;2.65;;;;;;;;;;5865462;28;20050;-79
2024/01/20 09:34:43;;;;;;;4.80;2.25;;;;;;;;;;5881426;28;20080;-80
2024/01/20 09:37:36;;;;;;;4.43;2.42;;;;;;;;;;5865052;28;20049;-80
2024/01/20 09:40:29;;;;;;;6.40;2.92;;;;;;;;;;5866392;28;20045;-80
2024/01/20 09:43:19;;;;;;;4.97;3.03;;;;;;;;;;5871539;28;20511;-80
2024/01/20 09:46:11;;;;;;;9.98;2.50;;;;;;;;;;5881097;28;20053;-80
2024/01/20 09:49:02;;;;;;;6.63;3.15;;;;;;;;;;5865974;28;20087;-81
2024/01/20 09:51:58;;;;;;;4.00;2.78;;;;;;;;;;5865051;28;20397;-81
2024/01/20 09:55:01;;;;;;;7.53;3.88;;;;;;;;;;5864393;28;20045;-80
2024/01/20 09:57:53;;;;;;;8.23;3.08;;;;;;;;;;5864630;28;20388;-80
2024/01/20 10:00:44;;;;;;;6.97;3.25;;;;;;;;;;5864467;28;20060;-81
2024/01/20 10:03:39;;;;;;;4.07;3.30;;;;;;;;;;5880717;28;20457;-80
2024/01/20 10:06:30;;;;;;;7.30;3.78;;;;;;;;;;5880461;28;20048;-81
2024/01/20 10:09:22;;;;;;;3.83;2.92;;;;;;;;;;5865504;28;20083;-81
2024/01/20 10:12:14;;;;;;;9.23;3.85;;;;;;;;;;5880245;28;20079;-80
2024/01/20 10:15:06;;;;;;;5.47;2.17;;;;;;;;;;5865252;28;20054;-79
2024/01/20 10:18:09;;;;;;;12.13;4.13;;;;;;;;;;5866115;28;20041;-79
2024/01/20 10:21:05;;;;;;;3.92;2.78;;;;;;;;;;5864258;28;20511;-79
2024/01/20 10:23:58;;;;;;;33.45;3.55;;;;;;;;;;5847727;28;20045;-80
2024/01/20 10:26:50;;;;;;;8.57;3.95;;;;;;;;;;5863760;28;20044;-81
2024/01/20 10:29:41;;;;;;;3.67;2.75;;;;;;;;;;5865078;28;20042;-80
2024/01/20 10:32:32;;;;;;;12.75;4.50;;;;;;;;;;5865072;28;20056;-80
2024/01/20 10:35:42;;;;;;;10.23;3.92;;;;;;;;;;5864022;28;20112;-80
2024/01/20 10:38:38;;;;;;;9.32;3.80;;;;;;;;;;5863772;28;20045;-80
2024/01/20 10:41:30;;;;;;;8.35;3.67;;;;;;;;;;5865110;28;20495;-80
2024/01/20 10:44:25;;;;;;;11.63;4.75;;;;;;;;;;5863562;28;20054;-79
2024/01/20 10:47:34;;;;;;;6.55;3.00;;;;;;;;;;5863452;28;20053;-80
2024/01/20 10:50:25;;;;;;;22.10;3.30;;;;;;;;;;5863679;28;20128;-80
2024/01/20 10:53:16;;;;;;;9.45;3.83;;;;;;;;;;5863261;28;20132;-80
2024/01/20 10:56:08;;;;;;;9.27;3.35;;;;;;;;;;5863158;28;20132;-79
2024/01/20 10:59:11;;;;;;;11.07;5.75;;;;;;;;;;5863364;28;20111;-79
2024/01/20 11:02:11;;;;;;;8.43;5.20;;;;;;;;;;5864144;28;20491;-79
2024/01/20 11:05:03;;;;;;;5.45;3.20;;;;;;;;;;5863493;28;20049;-79
2024/01/20 11:08:02;;;;;;;6.75;4.00;;;;;;;;;;5863021;28;20404;-80
2024/01/20 11:10:54;;;;;;;;;;;;;;;;;;5863734;28;20057;-79
2024/01/20 11:13:47;;;;;;;6.53;3.63;;;;;;;;;;5846488;28;19925;-79
2024/01/20 11:16:40;;;;;;;2.83;2.33;;;;;;;;;;5862832;28;20046;-79
2024/01/20 11:19:32;;;;;;;11.10;3.72;;;;;;;;;;5862781;28;20115;-79
2024/01/20 11:22:44;;;;;;;4.60;3.72;;;;;;;;;;5863129;28;20049;-79
2024/01/20 11:25:35;;;;;;;6.75;2.88;;;;;;;;;;5862792;28;20056;-80
2024/01/20 11:28:34;;;;;;;3.15;2.28;;;;;;;;;;5862580;28;20049;-79
2024/01/20 11:31:32;;;;;;;8.38;3.80;;;;;;;;;;5878649;28;20041;-79
2024/01/20 11:34:23;;;;;;;5.05;2.97;;;;;;;;;;5863011;28;20099;-80
2024/01/20 11:37:15;;;;;;;8.85;3.92;;;;;;;;;;5878607;28;20466;-79
2024/01/20 11:40:09;;;;;;;7.93;3.83;;;;;;;;;;5862401;28;20049;-79
2024/01/20 11:43:06;;;;;;;8.95;3.03;;;;;;;;;;5863942;28;20416;-79
2024/01/20 11:45:57;;;;;;;5.68;4.20;;;;;;;;;;5862229;28;20046;-79
2024/01/20 11:48:48;;;;;;;6.15;3.08;;;;;;;;;;5861938;28;20049;-79
2024/01/20 11:51:39;;;;;;;5.38;2.25;;;;;;;;;;5861793;28;20045;-79
2024/01/20 11:54:30;;;;;;;5.28;3.25;;;;;;;;;;5861537;28;20107;-79
2024/01/20 11:57:24;;;;;;;7.18;3.65;;;;;;;;;;5862939;28;20045;-79
2024/01/20 12:00:15;;;;;;;7.07;3.50;;;;;;;;;;5877636;28;20068;-79
2024/01/20 12:03:06;;;;;;;29.35;10.35;;;;;;;;;;5861800;28;20602;-79
2024/01/20 12:06:05;;;;;;;11.63;5.50;;;;;;;;;;5862184;28;20041;-79
2024/01/20 12:08:56;;;;;;;12.25;4.05;;;;;;;;;;5878433;28;20067;-81
2024/01/20 12:11:47;;;;;;;8.73;5.03;;;;;;;;;;5861559;28;20124;-79
2024/01/20 12:14:41;;;;;;;11.05;4.30;;;;;;;;;;5861685;28;20511;-79
2024/01/20 12:17:33;;;;;;;7.63;5.32;;;;;;;;;;5861577;28;20050;-79
2024/01/20 12:20:24;;;;;;;8.75;4.75;;;;;;;;;;5878016;28;20045;-80
2024/01/20 12:23:19;;;;;;;5.60;3.35;;;;;;;;;;5862552;28;20087;-79
2024/01/20 12:26:16;;;;;;;7.13;2.67;;;;;;;;;;5861431;28;20053;-79
2024/01/20 12:29:07;;;;;;;5.38;3.63;;;;;;;;;;5877312;28;20081;-79
2024/01/20 12:31:59;;;;;;;6.22;3.97;;;;;;;;;;5878115;28;20048;-79
2024/01/20 12:34:49;;;;;;;5.65;3.50;;;;;;;;;;5861397;28;20052;-79
2024/01/20 12:37:40;;;;;;;3.28;2.17;;;;;;;;;;5862486;28;20124;-79
2024/01/20 12:40:32;;;;;;;7.68;3.05;;;;;;;;;;5861032;28;20049;-79
2024/01/20 12:43:23;;;;;;;3.85;2.55;;;;;;;;;;5861036;28;20403;-80
2024/01/20 12:46:15;;;;;;;4.72;3.50;;;;;;;;;;5861225;28;20057;-78
2024/01/20 12:49:06;;;;;;;7.20;2.58;;;;;;;;;;5860874;28;20504;-79
2024/01/20 12:51:57;;;;;;;8.70;2.65;;;;;;;;;;5861566;28;20072;-79
2024/01/20 12:54:48;;;;;;;4.55;2.20;;;;;;;;;;5860987;28;20499;-79
2024/01/20 12:57:40;;;;;;;15.02;2.70;;;;;;;;;;5860880;28;20052;-80
2024/01/20 13:00:31;;;;;;;5.43;2.72;;;;;;;;;;5862215;28;20053;-79
2024/01/20 13:03:22;;;;;;;5.95;3.08;;;;;;;;;;5860833;28;20514;-78
2024/01/20 13:06:13;;;;;;;10.13;4.07;;;;;;;;;;5860677;28;20462;-79
2024/01/20 13:09:03;;;;;;;7.63;5.38;;;;;;;;;;5862051;28;20049;-79
2024/01/20 13:11:54;;;;;;;7.60;3.65;;;;;;;;;;5861165;28;20115;-79
2024/01/20 13:14:45;;;;;;;2.33;2.08;;;;;;;;;;5861893;28;20056;-78
2024/01/20 13:17:36;;;;;;;13.07;3.53;;;;;;;;;;5862174;28;20042;-79
2024/01/20 13:20:27;;;;;;;4.70;3.13;;;;;;;;;;5860495;28;20056;-79
2024/01/20 13:23:18;;;;;;;16.00;3.72;;;;;;;;;;5860783;28;20076;-79
2024/01/20 13:26:08;;;;;;;4.43;3.45;;;;;;;;;;5860747;28;20587;-80
2024/01/20 13:28:59;;;;;;;8.18;4.22;;;;;;;;;;5860870;28;20048;-79
2024/01/20 13:31:50;;;;;;;9.35;3.47;;;;;;;;;;5863704;28;20503;-79
2024/01/20 13:34:41;;;;;;;6.03;3.17;;;;;;;;;;5881057;28;20138;-79
2024/01/20 13:37:32;;;;;;;5.30;2.83;;;;;;;;;;5864967;28;20125;-78
2024/01/20 13:40:23;;;;;;;5.55;3.20;;;;;;;;;;5866013;28;20049;-80
2024/01/20 13:43:14;;;;;;;7.30;3.95;;;;;;;;;;5864443;28;20068;-79
2024/01/20 13:46:04;;;;;;;6.68;3.53;;;;;;;;;;5864220;28;20099;-78
2024/01/20 13:48:55;;;;;;;2.42;2.15;;;;;;;;;;5864879;28;20049;-80
2024/01/20 13:51:46;;;;;;;5.68;2.38;;;;;;;;;;5865629;28;20056;-79
2024/01/20 13:54:37;;;;;;;4.13;2.85;;;;;;;;;;5864185;28;20041;-79
2024/01/20 13:57:28;;;;;;;6.25;3.92;;;;;;;;;;5864227;28;20049;-79
2024/01/20 14:00:19;;;;;;;3.08;2.58;;;;;;;;;;5864337;28;20522;-78
2024/01/20 14:03:10;;;;;;;3.33;2.58;;;;;;;;;;5865412;28;20657;-80
2024/01/20 14:06:00;;;;;;;6.28;1.65;;;;;;;;;;5880620;28;20045;-79
2024/01/20 14:08:52;;;;;;;6.07;3.63;;;;;;;;;;5864549;28;20046;-79
2024/01/20 14:11:43;;;;;;;6.85;2.15;;;;;;;;;;5865214;28;20551;-79
2024/01/20 14:14:36;;;;;;;4.25;1.67;;;;;;;;;;5863683;28;20045;-79
2024/01/20 14:17:28;;;;;;;2.53;2.03;;;;;;;;;;5880558;28;20050;-80
2024/01/20 14:20:19;;;;;;;8.93;2.95;;;;;;;;;;5864180;28;20056;-79
2024/01/20 14:23:10;;;;;;;3.53;2.78;;;;;;;;;;5863564;28;20071;-79
2024/01/20 14:26:01;;;;;;;5.13;3.10;;;;;;;;;;5863662;28;20053;-79
2024/01/20 14:28:51;;;;;;;4.50;4.03;;;;;;;;;;5863823;28;20056;-79
2024/01/20 14:31:53;;;;;;;7.53;3.33;;;;;;;;;;5863533;28;20425;-80
2024/01/20 14:34:44;;;;;;;4.93;3.17;;;;;;;;;;5863521;28;20407;-79
2024/01/20 14:37:34;;;;;;;12.80;4.88;;;;;;;;;;5863348;28;20042;-79
2024/01/20 14:40:25;;;;;;;10.95;5.40;;;;;;;;;;5864730;28;20488;-79
2024/01/20 14:43:16;;;;;;;13.65;5.97;;;;;;;;;;5861995;28;20050;-80
2024/01/20 14:46:07;;;;;;;9.05;5.00;;;;;;;;;;5863268;28;20045;-80
2024/01/20 14:48:58;;;;;;;7.95;4.07;;;;;;;;;;5863679;28;20045;-79
2024/01/20 14:51:50;;;;;;;11.60;3.85;;;;;;;;;;5863328;28;20131;-79
2024/01/20 14:54:40;;;;;;;13.00;4.85;;;;;;;;;;5863024;28;20057;-81
2024/01/20 14:57:31;;;;;;;12.75;5.57;;;;;;;;;;5864642;28;20049;-79
2024/01/20 15:00:22;;;;;;;16.42;5.97;;;;;;;;;;5864689;28;20128;-79
2024/01/20 15:03:13;;;;;;;18.50;6.38;;;;;;;;;;5863040;28;20447;-79
2024/01/20 15:06:07;;;;;;;12.50;4.45;;;;;;;;;;5864444;28;20075;-79
2024/01/20 15:08:59;;;;;;;8.05;4.65;;;;;;;;;;5863423;28;20128;-80
2024/01/20 15:11:51;;;;;;;16.48;8.80;;;;;;;;;;5863263;28;20499;-80
2024/01/20 15:14:43;;;;;;;17.15;7.90;;;;;;;;;;5862947;28;20091;-80
2024/01/20 15:17:34;;;;;;;21.70;6.05;;;;;;;;;;5862846;28;20045;-80
2024/01/20 15:20:25;;;;;;;31.20;7.15;;;;;;;;;;5863167;28;20167;-81
2024/01/20 15:23:16;;;;;;;16.73;5.57;;;;;;;;;;5862722;28;20060;-79
2024/01/20 15:26:08;;;;;;;17.15;6.30;;;;;;;;;;5862911;28;20411;-79
2024/01/20 15:28:58;;;;;;;20.00;7.43;;;;;;;;;;5863175;28;20162;-80
2024/01/20 15:31:49;;;;;;;20.42;6.47;;;;;;;;;;5862523;28;20052;-80
2024/01/20 15:34:40;;;;;;;26.38;12.63;;;;;;;;;;5879110;28;20453;-79
2024/01/20 15:37:31;;;;;;;20.42;9.15;;;;;;;;;;5878915;28;20077;-80
2024/01/20 15:40:21;;;;;;;18.67;6.30;;;;;;;;;;5862455;28;20400;-80
2024/01/20 15:43:12;;;;;;;12.27;5.03;;;;;;;;;;5862488;28;20055;-79
2024/01/20 15:46:03;;;;;;;8.30;4.00;;;;;;;;;;5862628;28;20045;-80
2024/01/20 15:48:55;;;;;;;11.85;5.32;;;;;;;;;;5864129;28;20041;-79
2024/01/20 15:51:49;;;;;;;8.98;4.75;;;;;;;;;;5862421;28;20132;-81
2024/01/20 15:54:40;;;;;;;10.70;4.95;;;;;;;;;;5861978;28;20041;-80
2024/01/20 15:57:31;;;;;;;9.20;4.25;;;;;;;;;;5862137;28;20119;-80
2024/01/20 16:00:22;;;;;;;6.93;4.28;;;;;;;;;;5878705;28;20124;-81
2024/01/20 16:03:13;;;;;;;9.38;5.50;;;;;;;;;;5861803;28;20049;-79
2024/01/20 16:06:04;;;;;;;11.00;5.65;;;;;;;;;;5861909;28;20480;-81
2024/01/20 16:08:56;;;;;;;12.50;5.03;;;;;;;;;;5863639;28;20046;-80
2024/01/20 16:11:51;;;;;;;16.70;7.22;;;;;;;;;;5877670;28;20148;-79
2024/01/20 16:14:42;;;;;;;21.23;8.10;;;;;;;;;;5861516;28;20128;-81
2024/01/20 16:17:33;;;;;;;15.82;7.78;;;;;;;;;;5863059;28;20049;-80
2024/01/20 16:20:24;;;;;;;15.43;6.25;;;;;;;;;;5861758;28;20048;-81
2024/01/20 16:23:16;;;;;;;14.35;5.75;;;;;;;;;;5877904;28;20054;-80
2024/01/20 16:26:07;;;;;;;17.17;6.30;;;;;;;;;;5861852;28;20072;-80
2024/01/20 16:28:58;;;;;;;12.75;7.22;;;;;;;;;;5861642;28;20042;-81
2024/01/20 16:31:51;;;;;;;22.92;6.80;;;;;;;;;;5861352;28;20055;-81
2024/01/20 16:34:43;;;;;;;21.20;7.80;;;;;;;;;;5877479;28;20384;-80
2024/01/20 16:37:34;;;;;;;11.77;5.35;;;;;;;;;;5877738;28;20041;-80
2024/01/20 16:40:25;;;;;;;11.32;6.45;;;;;;;;;;5860975;28;20049;-80
2024/01/20 16:43:15;;;;;;;21.55;5.95;;;;;;;;;;5862160;28;20049;-80
2024/01/20 16:46:06;;;;;;;12.15;5.25;;;;;;;;;;5861363;28;20054;-80
2024/01/20 16:48:57;;;;;;;7.78;5.93;;;;;;;;;;5861669;28;20107;-80
2024/01/20 16:51:48;;;;;;;11.73;4.82;;;;;;;;;;5861191;28;20053;-80
2024/01/20 16:54:39;;;;;;;13.05;5.45;;;;;;;;;;5861135;28;20124;-80
2024/01/20 16:57:30;;;;;;;11.43;6.60;;;;;;;;;;5861127;28;20046;-80
2024/01/20 17:00:21;;;;;;;11.50;5.07;;;;;;;;;;5861112;28;20049;-80
2024/01/20 17:03:12;;;;;;;6.75;4.65;;;;;;;;;;5860922;28;20050;-80